createdAt,value
2019-04-06T00:02:48.661Z,98525.90
2019-04-06T00:05:53.839Z,98528.86
2019-04-06T00:08:59.108Z,98531.13
2019-04-06T00:12:04.409Z,98527.39
2019-04-06T00:15:11.338Z,98521.87
2019-04-06T00:18:16.647Z,98513.82
2019-04-06T00:21:21.739Z,98513.04
2019-04-06T00:24:29.378Z,98507.67
2019-04-06T00:27:34.594Z,98509.61
2019-04-06T00:30:54.325Z,98515.09
2019-04-06T00:33:59.511Z,98510.41
2019-04-06T00:37:04.764Z,98513.38
2019-04-06T00:40:10.392Z,98510.56
2019-04-06T00:43:15.553Z,98517.09
2019-04-06T00:46:20.800Z,98517.28
2019-04-06T00:49:25.984Z,98522.33
2019-04-06T00:52:31.194Z,98516.09
2019-04-06T00:55:36.519Z,98521.98
2019-04-06T00:58:41.755Z,98520.06
2019-04-06T01:01:47.086Z,98521.50
2019-04-06T01:04:52.419Z,98511.06
2019-04-06T01:07:57.697Z,98522.09
2019-04-06T01:11:02.988Z,98507.63
2019-04-06T01:14:08.388Z,98502.42
2019-04-06T01:17:13.528Z,98502.44
2019-04-06T01:20:18.811Z,98509.06
2019-04-06T01:23:24.014Z,98515.61
2019-04-06T01:26:29.394Z,98511.34
2019-04-06T01:29:34.580Z,98509.56
2019-04-06T01:32:39.759Z,98516.20
2019-04-06T01:35:44.972Z,98518.80
2019-04-06T01:38:50.318Z,98515.08
2019-04-06T01:41:55.594Z,98512.10
2019-04-06T01:45:00.798Z,98504.20
2019-04-06T01:48:06.704Z,98509.11
2019-04-06T01:51:11.847Z,98512.25
2019-04-06T01:54:17.214Z,98512.75
2019-04-06T01:57:22.599Z,98511.20
2019-04-06T02:00:27.780Z,98510.86
2019-04-06T02:03:33.267Z,98513.73
2019-04-06T02:06:38.583Z,98509.06
2019-04-06T02:09:43.908Z,98513.41
2019-04-06T02:12:49.041Z,98519.37
2019-04-06T02:15:54.449Z,98522.33
2019-04-06T02:18:59.669Z,98512.56
2019-04-06T02:22:05.305Z,98515.80
2019-04-06T02:25:10.594Z,98512.06
2019-04-06T02:28:15.843Z,98510.01
2019-04-06T02:31:32.919Z,98504.65
2019-04-06T02:34:55.674Z,98509.48
2019-04-06T02:38:22.677Z,98509.09
2019-04-06T02:41:46.869Z,98498.38
2019-04-06T02:44:51.929Z,98491.02
2019-04-06T02:47:57.224Z,98489.61
2019-04-06T02:51:02.461Z,98487.98
2019-04-06T02:54:07.659Z,98488.97
2019-04-06T02:57:12.921Z,98493.56
2019-04-06T03:00:18.761Z,98503.28
2019-04-06T03:03:24.549Z,98512.20
2019-04-06T03:06:29.783Z,98515.05
2019-04-06T03:09:34.872Z,98514.19
2019-04-06T03:12:40.455Z,98503.02
2019-04-06T03:15:45.801Z,98509.85
2019-04-06T03:18:50.981Z,98502.09
2019-04-06T03:21:56.157Z,98506.42
2019-04-06T03:25:01.533Z,98508.67
2019-04-06T03:28:06.713Z,98500.84
2019-04-06T03:31:12.043Z,98504.53
2019-04-06T03:34:20.996Z,98516.37
2019-04-06T03:37:24.605Z,98518.55
2019-04-06T03:40:29.681Z,98524.56
2019-04-06T03:43:34.879Z,98516.02
2019-04-06T03:46:40.259Z,98526.94
2019-04-06T03:49:45.571Z,98526.96
2019-04-06T03:52:50.758Z,98520.49
2019-04-06T03:55:55.895Z,98524.22
2019-04-06T03:59:01.570Z,98526.77
2019-04-06T04:02:06.767Z,98531.68
2019-04-06T04:05:11.982Z,98524.11
2019-04-06T04:08:17.163Z,98534.34
2019-04-06T04:11:22.365Z,98537.47
2019-04-06T04:14:27.875Z,98529.87
2019-04-06T04:17:33.194Z,98529.60
2019-04-06T04:20:38.454Z,98530.37
2019-04-06T04:23:43.952Z,98533.62
2019-04-06T04:26:49.119Z,98534.67
2019-04-06T04:29:54.579Z,98533.47
2019-04-06T04:32:59.884Z,98537.72
2019-04-06T04:36:05.018Z,98535.73
2019-04-06T04:39:10.174Z,98532.45
2019-04-06T04:42:15.367Z,98536.06
2019-04-06T04:45:20.608Z,98542.14
2019-04-06T04:48:25.751Z,98544.25
2019-04-06T04:51:31.011Z,98543.61
2019-04-06T04:54:36.182Z,98546.16
2019-04-06T04:57:43.732Z,98540.36
2019-04-06T05:00:48.818Z,98543.12
2019-04-06T05:03:53.986Z,98552.86
2019-04-06T05:06:59.181Z,98549.73
2019-04-06T05:10:04.592Z,98559.64
2019-04-06T05:13:09.968Z,98559.56
2019-04-06T05:16:15.142Z,98565.23
2019-04-06T05:19:20.429Z,98568.88
2019-04-06T05:22:25.882Z,98569.54
2019-04-06T05:25:32.070Z,98580.25
2019-04-06T05:28:37.272Z,98577.00
2019-04-06T05:31:42.571Z,98578.70
2019-04-06T05:34:47.761Z,98577.92
2019-04-06T05:37:52.978Z,98577.37
2019-04-06T05:40:58.192Z,98591.00
2019-04-06T05:44:04.562Z,98582.14
2019-04-06T05:47:09.807Z,98590.43
2019-04-06T05:50:15.120Z,98584.30
2019-04-06T05:53:20.479Z,98590.40
2019-04-06T05:56:25.815Z,98590.64
2019-04-06T05:59:30.999Z,98594.88
2019-04-06T06:02:40.322Z,98601.59
2019-04-06T06:05:43.201Z,98594.43
2019-04-06T06:08:48.732Z,98599.60
2019-04-06T06:11:55.593Z,98594.06
2019-04-06T06:15:00.868Z,98594.94
2019-04-06T06:18:06.194Z,98586.20
2019-04-06T06:21:11.436Z,98589.56
2019-04-06T06:24:16.669Z,98592.63
2019-04-06T06:27:23.045Z,98593.30
2019-04-06T06:30:28.754Z,98594.95
2019-04-06T06:33:35.002Z,98600.30
2019-04-06T06:36:40.200Z,98600.22
2019-04-06T06:39:45.479Z,98594.32
2019-04-06T06:42:50.863Z,98596.63
2019-04-06T06:45:57.157Z,98593.85
2019-04-06T06:49:02.611Z,98608.22
2019-04-06T06:52:07.909Z,98600.69
2019-04-06T06:55:14.147Z,98605.94
2019-04-06T06:58:25.047Z,98606.28
2019-04-06T07:01:26.332Z,98602.20
2019-04-06T07:04:31.801Z,98609.02
2019-04-06T07:07:36.969Z,98603.33
2019-04-06T07:10:42.188Z,98612.25
2019-04-06T07:13:47.701Z,98603.00
2019-04-06T07:16:53.078Z,98600.05
2019-04-06T07:19:58.253Z,98602.52
2019-04-06T07:23:03.363Z,98602.78
2019-04-06T07:26:08.727Z,98604.49
2019-04-06T07:29:13.878Z,98599.03
2019-04-06T07:32:20.115Z,98598.61
2019-04-06T07:35:25.284Z,98603.33
2019-04-06T07:38:30.818Z,98603.41
2019-04-06T07:41:36.320Z,98602.76
2019-04-06T07:44:41.524Z,98606.55
2019-04-06T07:47:47.015Z,98598.91
2019-04-06T07:50:52.131Z,98599.72
2019-04-06T07:53:57.405Z,98595.23
2019-04-06T07:57:02.874Z,98585.34
2019-04-06T08:00:08.326Z,98590.02
2019-04-06T08:03:13.760Z,98584.42
2019-04-06T08:06:18.914Z,98584.41
2019-04-06T08:09:26.859Z,98583.80
2019-04-06T08:12:31.844Z,98586.30
2019-04-06T08:15:36.986Z,98585.66
2019-04-06T08:18:42.133Z,98586.86
2019-04-06T08:21:47.357Z,98593.30
2019-04-06T08:24:52.569Z,98588.92
2019-04-06T08:27:57.829Z,98582.55
2019-04-06T08:31:03.191Z,98591.95
2019-04-06T08:34:09.492Z,98590.50
2019-04-06T08:37:16.277Z,98592.48
2019-04-06T08:40:21.579Z,98587.19
2019-04-06T08:43:26.957Z,98582.41
2019-04-06T08:46:32.144Z,98584.45
2019-04-06T08:49:37.312Z,98588.96
2019-04-06T08:52:42.498Z,98578.91
2019-04-06T08:55:51.128Z,98586.39
2019-04-06T08:58:56.263Z,98572.95
2019-04-06T09:02:01.480Z,98574.84
2019-04-06T09:05:06.901Z,98573.27
2019-04-06T09:08:13.302Z,98581.98
2019-04-06T09:11:18.507Z,98576.05
2019-04-06T09:14:24.055Z,98577.66
2019-04-06T09:17:29.467Z,98571.88
2019-04-06T09:20:34.849Z,98577.35
2019-04-06T09:23:40.372Z,98572.27
2019-04-06T09:26:48.010Z,98568.70
2019-04-06T09:29:53.072Z,98561.11
2019-04-06T09:32:58.364Z,98562.98
2019-04-06T09:36:03.648Z,98561.37
2019-04-06T09:39:08.897Z,98554.33
2019-04-06T09:42:14.088Z,98546.65
2019-04-06T09:45:31.757Z,98539.52
2019-04-06T09:48:47.645Z,98533.34
2019-04-06T09:52:11.221Z,98528.31
2019-04-06T09:55:44.377Z,98531.42
2019-04-06T09:59:17.797Z,98535.61
2019-04-06T10:02:57.671Z,98530.73
2019-04-06T10:06:21.119Z,98524.49
2019-04-06T10:09:48.318Z,98519.89
2019-04-06T10:13:18.847Z,98512.55
2019-04-06T10:16:43.736Z,98513.66
2019-04-06T10:20:17.154Z,98514.75
2019-04-06T10:23:39.985Z,98508.67
2019-04-06T10:27:14.041Z,98502.61
2019-04-06T10:30:37.048Z,98497.75
2019-04-06T10:33:52.356Z,98502.69
2019-04-06T10:37:19.660Z,98502.16
2019-04-06T10:40:46.791Z,98500.23
2019-04-06T10:44:01.972Z,98497.53
2019-04-06T10:47:29.375Z,98493.93
2019-04-06T10:50:52.846Z,98492.31
2019-04-06T10:54:25.814Z,98489.76
2019-04-06T10:57:46.987Z,98482.69
2019-04-06T11:01:24.121Z,98473.92
2019-04-06T11:04:34.006Z,98472.28
2019-04-06T11:08:01.183Z,98467.92
2019-04-06T11:11:20.656Z,98469.16
2019-04-06T11:14:57.304Z,98468.91
2019-04-06T11:40:19.273Z,98443.80
2019-04-06T11:43:30.390Z,98443.61
2019-04-06T11:46:53.209Z,98443.69
2019-04-06T11:50:20.396Z,98435.41
2019-04-06T11:53:31.530Z,98438.23
2019-04-06T11:56:59.072Z,98443.67
2019-04-06T12:00:26.580Z,98435.78
2019-04-06T12:03:51.210Z,98432.31
2019-04-06T12:07:24.679Z,98431.89
2019-04-06T12:10:37.656Z,98434.21
2019-04-06T12:13:51.131Z,98427.52
2019-04-06T12:17:24.250Z,98422.39
2019-04-06T12:21:04.226Z,98412.67
2019-04-06T12:24:22.112Z,98410.08
2019-04-06T12:27:44.906Z,98414.77
2019-04-06T12:34:51.993Z,98401.64
2019-04-06T12:38:25.546Z,98397.00
2019-04-06T12:42:08.340Z,98389.16
2019-04-06T12:45:28.360Z,98382.78
2019-04-06T12:48:52.302Z,98385.58
2019-04-06T12:52:30.436Z,98379.66
2019-04-06T12:56:03.648Z,98383.77
2019-04-06T12:59:27.905Z,98376.27
2019-04-06T13:02:56.632Z,98374.95
2019-04-06T13:06:13.607Z,98365.41
2019-04-06T13:09:50.228Z,98367.48
2019-04-06T13:13:03.656Z,98359.42
2019-04-06T13:16:18.015Z,98354.44
2019-04-06T13:19:45.248Z,98353.45
2019-04-06T13:23:15.047Z,98346.95
2019-04-06T13:26:32.208Z,98339.16
2019-04-06T13:29:44.752Z,98340.29
2019-04-06T13:33:08.552Z,98335.16
2019-04-06T13:36:31.240Z,98331.17
2019-04-06T13:39:58.192Z,98330.23
2019-04-06T13:43:25.471Z,98326.10
2019-04-06T13:46:40.997Z,98333.39
2019-04-06T13:50:05.405Z,98332.78
2019-04-06T13:53:32.596Z,98325.91
2019-04-06T13:56:59.540Z,98330.16
2019-04-06T14:00:24.907Z,98316.27
2019-04-06T14:03:41.270Z,98323.38
2019-04-06T14:07:23.960Z,98320.48
2019-04-06T14:11:00.828Z,98314.28
2019-04-06T14:14:25.297Z,98306.92
2019-04-06T14:17:48.323Z,98309.27
2019-04-06T14:21:18.759Z,98307.84
2019-04-06T14:24:37.619Z,98306.20
2019-04-06T14:27:58.885Z,98302.05
2019-04-06T14:31:28.204Z,98297.02
2019-04-06T14:34:59.354Z,98310.44
2019-04-06T14:38:29.851Z,98302.59
2019-04-06T14:42:02.224Z,98304.69
2019-04-06T14:45:19.203Z,98299.23
2019-04-06T14:48:43.281Z,98299.47
2019-04-06T14:52:06.134Z,98298.03
2019-04-06T14:55:29.024Z,98292.30
2019-04-06T14:58:44.896Z,98290.70
2019-04-06T15:02:06.679Z,98295.02
2019-04-06T15:05:36.743Z,98291.56
2019-04-06T15:08:58.022Z,98291.95
2019-04-06T15:12:23.059Z,98288.55
2019-04-06T15:16:01.823Z,98285.30
2019-04-06T15:19:22.978Z,98277.28
2019-04-06T15:22:43.654Z,98281.70
2019-04-06T15:26:06.611Z,98278.94
2019-04-06T15:29:25.724Z,98270.14
2019-04-06T15:32:52.518Z,98264.17
2019-04-06T15:36:07.020Z,98271.48
2019-04-06T15:39:37.597Z,98264.61
2019-04-06T15:43:00.630Z,98266.72
2019-04-06T15:46:30.074Z,98251.55
2019-04-06T15:49:52.159Z,98257.19
2019-04-06T15:53:13.652Z,98251.78
2019-04-06T15:56:33.669Z,98253.34
2019-04-06T16:00:06.709Z,98248.41
2019-04-06T16:03:22.597Z,98244.27
2019-04-06T16:06:35.213Z,98241.45
2019-04-06T16:09:52.516Z,98242.08
2019-04-06T16:13:16.603Z,98249.78
2019-04-06T16:16:44.111Z,98253.22
2019-04-06T16:20:08.370Z,98240.23
2019-04-06T16:23:20.962Z,98245.46
2019-04-06T16:26:45.254Z,98236.23
2019-04-06T16:30:16.546Z,98239.52
2019-04-06T16:33:29.806Z,98243.72
2019-04-06T16:36:57.177Z,98240.83
2019-04-06T16:40:27.247Z,98241.59
2019-04-06T16:43:52.567Z,98245.80
2019-04-06T16:47:09.355Z,98245.25
2019-04-06T16:50:24.510Z,98247.27
2019-04-06T16:53:38.975Z,98244.03
2019-04-06T16:56:52.164Z,98245.44
2019-04-06T17:00:19.853Z,98245.44
2019-04-06T17:03:42.036Z,98247.28
2019-04-06T17:06:57.905Z,98244.11
2019-04-06T17:10:13.990Z,98243.40
2019-04-06T17:13:30.791Z,98252.92
2019-04-06T17:16:54.992Z,98253.02
2019-04-06T17:20:23.925Z,98252.21
2019-04-06T17:23:36.928Z,98252.59
2019-04-06T17:26:54.934Z,98250.48
2019-04-06T17:30:08.893Z,98244.80
2019-04-06T17:33:27.619Z,98246.31
2019-04-06T17:36:57.733Z,98249.53
2019-04-06T17:40:20.792Z,98246.58
2019-04-06T17:43:41.816Z,98248.05
2019-04-06T17:47:00.820Z,98250.25
2019-04-06T17:50:35.793Z,98250.25
2019-04-06T17:53:58.736Z,98250.42
2019-04-06T17:57:39.142Z,98254.39
2019-04-06T18:00:53.648Z,98251.39
2019-04-06T18:04:16.651Z,98261.06
2019-04-06T18:07:45.008Z,98258.05
2019-04-06T18:11:12.614Z,98259.58
2019-04-06T18:14:18.929Z,98253.16
2019-04-06T18:17:24.403Z,98268.43
2019-04-06T18:20:29.997Z,98265.78
2019-04-06T18:23:35.598Z,98274.16
2019-04-06T18:26:40.798Z,98283.09
2019-04-06T18:29:46.521Z,98283.34
2019-04-06T18:33:02.231Z,98289.02
2019-04-06T18:36:05.453Z,98290.87
2019-04-06T18:39:11.585Z,98294.39
2019-04-06T18:42:16.781Z,98294.09
2019-04-06T18:45:21.988Z,98294.03
2019-04-06T18:48:27.442Z,98297.76
2019-04-06T18:51:32.789Z,98312.34
2019-04-06T18:54:38.051Z,98308.89
2019-04-06T18:57:43.536Z,98306.19
2019-04-06T19:00:48.728Z,98309.13
2019-04-06T19:03:53.968Z,98309.10
2019-04-06T19:06:59.164Z,98309.84
2019-04-06T19:10:04.677Z,98303.03
2019-04-06T19:13:10.004Z,98306.29
2019-04-06T19:16:17.086Z,98313.09
2019-04-06T19:19:23.308Z,98307.12
2019-04-06T19:22:28.547Z,98312.61
2019-04-06T19:25:33.900Z,98312.86
2019-04-06T19:28:39.105Z,98309.31
2019-04-06T19:31:44.377Z,98320.77
2019-04-06T19:34:50.706Z,98311.97
2019-04-06T19:37:56.772Z,98315.37
2019-04-06T19:41:02.146Z,98318.22
2019-04-06T19:44:08.023Z,98321.16
2019-04-06T19:47:13.377Z,98322.00
2019-04-06T19:50:19.065Z,98327.54
2019-04-06T19:53:24.500Z,98323.64
2019-04-06T19:56:30.011Z,98326.55
2019-04-06T19:59:37.244Z,98325.71
2019-04-06T20:02:42.628Z,98328.43
2019-04-06T20:05:47.857Z,98331.84
2019-04-06T20:08:52.946Z,98324.33
2019-04-06T20:12:07.032Z,98327.05
2019-04-06T20:15:07.493Z,98322.50
2019-04-06T20:18:13.786Z,98326.70
2019-04-06T20:21:19.090Z,98330.24
2019-04-06T20:24:24.345Z,98330.09
2019-04-06T20:27:29.620Z,98329.95
2019-04-06T20:30:34.884Z,98337.28
2019-04-06T20:33:48.401Z,98332.17
2019-04-06T20:36:47.189Z,98335.62
2019-04-06T20:39:52.546Z,98339.17
2019-04-06T20:42:59.065Z,98342.00
2019-04-06T20:46:04.386Z,98341.11
2019-04-06T20:49:09.616Z,98345.31
2019-04-06T20:52:16.130Z,98350.24
2019-04-06T20:55:21.177Z,98349.03
2019-04-06T20:58:26.885Z,98349.98
2019-04-06T21:01:33.481Z,98357.94
2019-04-06T21:04:38.775Z,98360.13
2019-04-06T21:07:43.955Z,98359.00
2019-04-06T21:10:49.123Z,98365.91
2019-04-06T21:13:54.370Z,98359.97
2019-04-06T21:17:00.152Z,98361.55
2019-04-06T21:20:08.127Z,98359.67
2019-04-06T21:23:13.855Z,98364.52
2019-04-06T21:26:19.079Z,98357.85
2019-04-06T21:29:24.497Z,98361.67
2019-04-06T21:32:30.418Z,98360.59
2019-04-06T21:35:36.230Z,98366.08
2019-04-06T21:38:42.885Z,98366.44
2019-04-06T21:41:48.666Z,98369.10
2019-04-06T21:44:53.804Z,98363.98
2019-04-06T21:47:59.442Z,98363.42
2019-04-06T21:51:05.412Z,98366.30
2019-04-06T21:54:10.882Z,98363.67
2019-04-06T21:57:16.027Z,98370.67
2019-04-06T22:00:45.066Z,98362.75
2019-04-06T22:03:50.698Z,98369.24
2019-04-06T22:06:55.813Z,98369.87
2019-04-06T22:10:02.659Z,98379.98
2019-04-06T22:13:09.408Z,98369.28
2019-04-06T22:16:14.732Z,98373.05
2019-04-06T22:19:21.408Z,98370.31
2019-04-06T22:22:27.819Z,98372.52
2019-04-06T22:25:33.445Z,98365.53
2019-04-06T22:28:38.718Z,98378.02
2019-04-06T22:31:43.881Z,98376.39
2019-04-06T22:34:49.100Z,98368.84
2019-04-06T22:37:55.459Z,98367.27
2019-04-06T22:41:01.294Z,98375.65
2019-04-06T22:44:07.313Z,98373.44
2019-04-06T22:47:12.926Z,98386.45
2019-04-06T22:50:18.820Z,98374.98
2019-04-06T22:53:23.962Z,98372.70
2019-04-06T22:56:29.409Z,98367.35
2019-04-06T22:59:35.911Z,98373.31
2019-04-06T23:02:50.893Z,98369.86
2019-04-06T23:05:59.604Z,98367.48
2019-04-06T23:09:07.076Z,98365.06
2019-04-06T23:12:12.249Z,98359.59
2019-04-06T23:15:17.518Z,98362.95
2019-04-06T23:18:23.081Z,98366.97
2019-04-06T23:21:28.383Z,98365.84
2019-04-06T23:24:33.545Z,98361.19
2019-04-06T23:27:38.767Z,98360.91
2019-04-06T23:30:44.139Z,98355.05
2019-04-06T23:33:49.348Z,98359.45
2019-04-06T23:36:54.517Z,98354.27
2019-04-06T23:39:59.827Z,98359.92
2019-04-06T23:43:04.960Z,98357.40
2019-04-06T23:46:10.110Z,98359.17
2019-04-06T23:49:15.283Z,98361.53
2019-04-06T23:52:20.409Z,98365.03
2019-04-06T23:55:26.124Z,98366.59
2019-04-06T23:58:31.457Z,98372.26
